LIME/BGY METAR and TAF weather

Enter ICAO airport designator
Station Type Date Time Source
LIME METAR 2020/08/12 17:50 UTC NOAA

LIME 121750Z 13005KT 9999 SCT080 28/20 Q1016 NOSIG


Station Type Date Time Source
LIME Decoded METAR 2020/08/12 17:50 UTC NOAA

Bergamo / Orio Al Serio, Italy (LIME) 45-40N 009-42E 237M
Aug 12, 2020 - 01:50 PM EDT / 2020.08.12 1750 UTC
Wind: from the SE (130 degrees) at 6 MPH (5 KT):0
Visibility: greater than 7 mile(s):0
Sky conditions: partly cloudy
Temperature: 82 F (28 C)
Dew Point: 68 F (20 C)
Relative Humidity: 61%
Pressure (altimeter): 30.00 in. Hg (1016 hPa)
ob: LIME 121750Z 13005KT 9999 SCT080 28/20 Q1016 NOSIG
cycle: 18

Station Type Date Time Source
LIME TAF 2020/08/12 18:21 UTC NOAA

TAF LIME 121700Z 1218/1318 VRB05KT 9999 FEW040
TEMPO 1222/1306 TSRA

Example: see airport list